Time;durP1;ratioP1;P1;durP2;ratioP2;P2;SDS_P1;SDS_P2;PMS_P1;PMS_P2;Temp;Humidity;BMP_temperature;BMP_pressure;BME280_temperature;BME280_humidity;BME280_pressure;Samples;Min_cycle;Max_cycle;Signal;HPM_P1;HPM_P2
2022/03/24 00:00:38;;;;;;;;;;;6.80;99.90;;;;;;5154308;27;20043;-75
2022/03/24 00:03:07;;;;;;;48.33;28.35;;;6.80;99.90;;;;;;5153756;27;19946;-75
2022/03/24 00:05:34;;;;;;;47.22;29.27;;;6.80;99.90;;;;;;5135214;27;20363;-74
2022/03/24 00:08:00;;;;;;;49.30;30.35;;;6.80;99.90;;;;;;5135448;27;20047;-74
2022/03/24 00:10:25;;;;;;;;;;;6.90;99.90;;;;;;5135726;27;20092;-74
2022/03/24 00:12:55;;;;;;;50.35;29.45;;;6.90;99.90;;;;;;5153683;27;20005;-74
2022/03/24 00:15:21;;;;;;;49.28;29.15;;;6.90;99.90;;;;;;5153364;27;20043;-74
2022/03/24 00:17:47;;;;;;;;;;;6.80;99.90;;;;;;5154597;27;20485;-74
2022/03/24 00:20:13;;;;;;;48.85;29.02;;;6.80;99.90;;;;;;5152593;27;19962;-74
2022/03/24 00:22:39;;;;;;;;;;;6.80;99.90;;;;;;5154637;27;20038;-75
2022/03/24 00:25:08;;;;;;;45.35;29.30;;;6.80;99.90;;;;;;5153400;27;19914;-74
2022/03/24 00:27:33;;;;;;;53.33;32.33;;;6.80;99.90;;;;;;5134745;27;20046;-74
2022/03/24 00:29:59;;;;;;;;;;;6.80;99.90;;;;;;5153951;27;20397;-73
2022/03/24 00:32:25;;;;;;;53.70;31.77;;;6.80;99.90;;;;;;5134670;27;19922;-75
2022/03/24 00:34:50;;;;;;;;;;;6.70;99.90;;;;;;5135778;27;20401;-74
2022/03/24 00:37:17;;;;;;;50.80;30.70;;;6.70;99.90;;;;;;5153383;27;20011;-75
2022/03/24 00:39:43;;;;;;;50.78;30.75;;;6.70;99.90;;;;;;5152745;27;20085;-75
2022/03/24 00:42:09;;;;;;;;;;;6.70;99.90;;;;;;5135350;27;20125;-75
2022/03/24 00:44:36;;;;;;;55.22;32.00;;;6.60;99.90;;;;;;5134832;27;19926;-75
2022/03/24 00:47:03;;;;;;;55.53;32.75;;;6.60;99.90;;;;;;5134838;27;20058;-74
2022/03/24 00:49:28;;;;;;;57.40;33.72;;;6.60;99.90;;;;;;5157150;27;20076;-74
2022/03/24 00:51:54;;;;;;;;;;;6.60;99.90;;;;;;5157819;27;20043;-74
2022/03/24 00:54:22;;;;;;;52.47;31.42;;;6.60;99.90;;;;;;5156310;27;19923;-74
2022/03/24 00:56:48;;;;;;;;;;;6.60;99.90;;;;;;5157605;27;20043;-74
2022/03/24 00:59:14;;;;;;;54.00;32.67;;;6.60;99.90;;;;;;5138047;27;19944;-74
2022/03/24 01:01:39;;;;;;;;;;;6.60;99.90;;;;;;5157339;27;20042;-74
2022/03/24 01:04:09;;;;;;;52.65;30.55;;;6.60;99.90;;;;;;5156748;27;19919;-75
2022/03/24 01:06:35;;;;;;;56.30;33.90;;;6.60;99.90;;;;;;5138447;27;20038;-75
2022/03/24 01:09:01;;;;;;;;;;;6.60;99.90;;;;;;5138547;27;20053;-75
2022/03/24 01:11:27;;;;;;;55.28;32.40;;;6.60;99.90;;;;;;5156410;27;20002;-75
2022/03/24 01:13:53;;;;;;;;;;;6.50;99.90;;;;;;5138870;27;20038;-75
2022/03/24 01:16:18;;;;;;;52.08;31.38;;;6.50;99.90;;;;;;5155990;27;20285;-75
2022/03/24 01:18:45;;;;;;;51.42;30.65;;;6.50;99.90;;;;;;5138614;27;20051;-75
2022/03/24 01:21:11;;;;;;;57.10;33.38;;;6.40;99.90;;;;;;5137889;27;20050;-75
2022/03/24 01:23:37;;;;;;;59.00;33.83;;;6.40;99.90;;;;;;5137708;27;20038;-75
2022/03/24 01:26:05;;;;;;;;;;;6.40;99.90;;;;;;5156991;27;20065;-75
2022/03/24 01:28:31;;;;;;;;;;;6.40;99.90;;;;;;5157118;27;19923;-75
2022/03/24 01:30:57;;;;;;;60.20;33.38;;;6.40;99.90;;;;;;5137548;27;19964;-75
2022/03/24 01:33:23;;;;;;;;;;;6.30;99.90;;;;;;5138376;27;20046;-75
2022/03/24 01:35:49;;;;;;;55.63;33.13;;;6.30;99.90;;;;;;5156040;27;19926;-75
2022/03/24 01:38:16;;;;;;;55.67;32.00;;;6.30;99.90;;;;;;5137833;27;20050;-75
2022/03/24 01:40:43;;;;;;;56.95;33.55;;;6.30;99.90;;;;;;5156134;27;20097;-75
2022/03/24 01:43:11;;;;;;;58.53;33.25;;;6.20;99.90;;;;;;5154376;27;20072;-76
2022/03/24 01:45:38;;;;;;;59.50;33.95;;;6.20;99.90;;;;;;5156485;27;20067;-75
2022/03/24 01:48:06;;;;;;;59.35;35.53;;;6.20;99.90;;;;;;5136626;27;20058;-75
2022/03/24 01:50:33;;;;;;;61.53;32.95;;;6.20;99.90;;;;;;5136848;27;20080;-75
2022/03/24 01:52:59;;;;;;;61.55;35.45;;;6.20;99.90;;;;;;5137891;27;20046;-76
2022/03/24 01:55:24;;;;;;;;;;;6.20;99.90;;;;;;5137763;27;20042;-75
2022/03/24 01:57:50;;;;;;;56.60;33.25;;;6.10;99.90;;;;;;5137450;27;19992;-75
2022/03/24 02:00:16;;;;;;;56.47;33.33;;;6.10;99.90;;;;;;5155869;27;20113;-75
2022/03/24 02:02:42;;;;;;;;;;;6.10;99.90;;;;;;5137695;27;20544;-75
2022/03/24 02:05:08;;;;;;;56.95;34.67;;;6.10;99.90;;;;;;5155049;27;19919;-75
2022/03/24 02:07:37;;;;;;;61.80;34.95;;;6.10;99.90;;;;;;5137184;27;20074;-75
2022/03/24 02:10:07;;;;;;;63.58;36.85;;;6.10;99.90;;;;;;5136783;27;20043;-75
2022/03/24 02:12:33;;;;;;;62.00;35.35;;;6.10;99.90;;;;;;5155130;27;20396;-75
2022/03/24 02:14:59;;;;;;;65.05;35.30;;;6.10;99.90;;;;;;5137350;27;20038;-75
2022/03/24 02:17:28;;;;;;;;;;;6.10;99.90;;;;;;5155622;27;20053;-75
2022/03/24 02:19:57;;;;;;;57.95;33.53;;;6.10;99.90;;;;;;5147593;27;19967;-75
2022/03/24 02:22:23;;;;;;;60.45;34.17;;;6.00;99.90;;;;;;5134273;27;20080;-75
2022/03/24 02:24:50;;;;;;;;;;;6.00;99.90;;;;;;5116568;27;20058;-75
2022/03/24 02:27:16;;;;;;;61.30;34.95;;;6.00;99.90;;;;;;5115941;27;19923;-75
2022/03/24 02:29:43;;;;;;;60.45;34.60;;;5.90;99.90;;;;;;5116764;27;20043;-75
2022/03/24 02:32:11;;;;;;;62.22;35.65;;;6.00;99.90;;;;;;5115724;27;20058;-75
2022/03/24 02:34:37;;;;;;;59.35;34.40;;;5.90;99.90;;;;;;5116424;27;20390;-75
2022/03/24 02:37:08;;;;;;;60.40;34.83;;;5.90;99.90;;;;;;5134675;27;20047;-75
2022/03/24 02:39:39;;;;;;;58.55;34.60;;;5.80;99.90;;;;;;5133902;27;20039;-75
2022/03/24 02:42:07;;;;;;;66.35;36.45;;;5.80;99.90;;;;;;5133575;27;20078;-75
2022/03/24 02:44:33;;;;;;;60.38;35.30;;;5.70;99.90;;;;;;5134051;27;20131;-74
2022/03/24 02:47:00;;;;;;;;;;;5.70;99.90;;;;;;5134446;27;20043;-75
2022/03/24 02:49:30;;;;;;;62.83;34.35;;;5.70;99.90;;;;;;5133751;27;20382;-75
2022/03/24 02:51:58;;;;;;;61.35;35.58;;;5.70;99.90;;;;;;5134546;27;20117;-75
2022/03/24 02:54:26;;;;;;;64.68;37.47;;;5.70;99.90;;;;;;5133652;27;20043;-75
2022/03/24 02:56:52;;;;;;;62.78;35.42;;;5.70;99.90;;;;;;5116150;27;20386;-75
2022/03/24 02:59:18;;;;;;;;;;;5.70;99.90;;;;;;5134304;27;20050;-75
2022/03/24 03:01:52;;;;;;;62.92;34.33;;;5.70;99.90;;;;;;5133455;27;19919;-75
2022/03/24 03:04:19;;;;;;;63.42;35.25;;;5.70;99.90;;;;;;5133648;27;20039;-75
2022/03/24 03:06:45;;;;;;;65.05;35.05;;;5.60;99.90;;;;;;5115681;27;20077;-75
2022/03/24 03:09:14;;;;;;;63.13;35.90;;;5.70;99.90;;;;;;5133048;27;20046;-75
2022/03/24 03:11:43;;;;;;;66.55;35.92;;;5.70;99.90;;;;;;5115081;27;20078;-75
2022/03/24 03:14:10;;;;;;;65.95;36.13;;;5.60;99.90;;;;;;5132930;27;20096;-75
2022/03/24 03:16:36;;;;;;;60.70;34.70;;;5.60;99.90;;;;;;5133490;27;20031;-75
2022/03/24 03:19:06;;;;;;;;;;;5.60;99.90;;;;;;5134330;27;20504;-75
2022/03/24 03:21:32;;;;;;;60.47;34.22;;;5.50;99.90;;;;;;5133545;27;19915;-75
2022/03/24 03:23:57;;;;;;;;;;;5.50;99.90;;;;;;5134273;27;20058;-74
2022/03/24 03:26:23;;;;;;;60.45;35.38;;;5.50;99.90;;;;;;5133337;27;19992;-75
2022/03/24 03:28:52;;;;;;;63.63;35.88;;;5.50;99.90;;;;;;5133100;27;20046;-75
2022/03/24 03:31:19;;;;;;;64.57;35.55;;;5.50;99.90;;;;;;5114476;27;20595;-75
2022/03/24 03:33:45;;;;;;;62.88;35.10;;;5.40;99.90;;;;;;5133833;27;20062;-75
2022/03/24 03:36:11;;;;;;;;;;;5.40;99.90;;;;;;5115088;28;20478;-75
2022/03/24 03:38:37;;;;;;;63.80;34.28;;;5.40;99.90;;;;;;5115332;27;20373;-75
2022/03/24 03:41:02;;;;;;;;;;;5.40;99.90;;;;;;5111950;28;20200;-75
2022/03/24 03:43:29;;;;;;;62.58;33.83;;;5.40;99.90;;;;;;5112352;28;19919;-75
2022/03/24 03:45:55;;;;;;;61.03;34.00;;;5.40;99.90;;;;;;5111953;28;20048;-75
2022/03/24 03:48:21;;;;;;;59.53;35.80;;;5.40;99.90;;;;;;5111571;28;20043;-75
2022/03/24 03:50:48;;;;;;;;;;;5.40;99.90;;;;;;5112867;28;20040;-75
2022/03/24 03:53:14;;;;;;;63.72;34.05;;;5.40;99.90;;;;;;5112697;28;19927;-75
2022/03/24 03:55:40;;;;;;;;;;;5.40;99.90;;;;;;5112018;28;20043;-75
2022/03/24 03:58:06;;;;;;;55.85;31.63;;;5.30;99.90;;;;;;5112290;28;20353;-74
2022/03/24 04:03:17;;;;;;;59.38;31.50;;;5.30;99.90;;;;;;5111046;28;20414;-75
2022/03/24 04:05:43;;;;;;;;;;;5.30;99.90;;;;;;5111838;28;20044;-75
2022/03/24 04:08:10;;;;;;;54.78;30.63;;;5.30;99.90;;;;;;5112648;28;20014;-75
2022/03/24 04:10:37;;;;;;;55.53;29.85;;;5.20;99.90;;;;;;5110769;28;20056;-75
2022/03/24 04:13:04;;;;;;;56.15;30.30;;;5.20;99.90;;;;;;5112530;28;20093;-75
2022/03/24 04:15:29;;;;;;;56.92;32.13;;;5.20;99.90;;;;;;5113273;28;20044;-75
2022/03/24 04:17:55;;;;;;;;;;;5.20;99.90;;;;;;5111553;28;20051;-75
2022/03/24 04:20:21;;;;;;;53.08;30.58;;;5.20;99.90;;;;;;5112475;28;19966;-75
2022/03/24 04:22:48;;;;;;;;;;;5.20;99.90;;;;;;5114297;28;20043;-74
2022/03/24 04:25:14;;;;;;;58.65;30.92;;;5.20;99.90;;;;;;5115699;28;19919;-74
2022/03/24 04:27:41;;;;;;;58.70;30.80;;;5.10;99.90;;;;;;5116633;28;20058;-75
2022/03/24 04:30:07;;;;;;;50.55;27.65;;;5.10;99.90;;;;;;5114699;28;20391;-74
2022/03/24 04:32:33;;;;;;;50.10;27.98;;;5.10;99.90;;;;;;5115751;28;20489;-75
2022/03/24 04:34:59;;;;;;;;;;;5.00;99.90;;;;;;5117236;28;20080;-75
2022/03/24 04:37:25;;;;;;;51.47;26.75;;;5.00;99.90;;;;;;5114792;28;20294;-75
2022/03/24 04:39:53;;;;;;;46.88;26.38;;;5.00;99.90;;;;;;5118832;27;20044;-75
2022/03/24 04:42:19;;;;;;;44.33;25.25;;;4.90;99.90;;;;;;5118163;27;20134;-75
2022/03/24 04:44:45;;;;;;;;;;;4.90;99.90;;;;;;5137348;27;20082;-75
2022/03/24 04:47:11;;;;;;;42.80;23.52;;;4.80;99.90;;;;;;5135651;27;20356;-74
2022/03/24 04:49:39;;;;;;;39.90;23.88;;;4.80;99.90;;;;;;5136855;27;20047;-75
2022/03/24 04:52:06;;;;;;;40.08;23.65;;;4.70;99.90;;;;;;5136223;27;20054;-74
2022/03/24 04:54:31;;;;;;;42.10;24.05;;;4.70;99.90;;;;;;5135033;27;20059;-74
2022/03/24 04:56:57;;;;;;;;;;;4.60;99.90;;;;;;5118754;27;20126;-75
2022/03/24 04:59:23;;;;;;;36.70;21.75;;;4.60;99.90;;;;;;5117898;27;19923;-75
2022/03/24 05:01:48;;;;;;;36.53;21.60;;;4.60;99.90;;;;;;5136123;27;20040;-75
2022/03/24 05:04:15;;;;;;;;;;;4.60;99.90;;;;;;5136682;27;20421;-75
2022/03/24 05:06:41;;;;;;;46.20;25.77;;;4.60;99.90;;;;;;5136147;27;19923;-75
2022/03/24 05:09:07;;;;;;;;;;;4.60;99.90;;;;;;5136139;27;20478;-74
2022/03/24 05:11:32;;;;;;;41.03;23.88;;;4.50;99.90;;;;;;5136441;27;19925;-74
2022/03/24 05:13:58;;;;;;;;;;;4.50;99.90;;;;;;5144027;27;20144;-74
2022/03/24 05:16:24;;;;;;;41.22;22.70;;;4.50;99.90;;;;;;5155978;27;19919;-74
2022/03/24 05:18:49;;;;;;;;;;;4.50;99.90;;;;;;5156175;27;20042;-73
2022/03/24 05:21:15;;;;;;;48.50;26.13;;;4.40;99.90;;;;;;5155105;27;19919;-74
2022/03/24 05:23:41;;;;;;;;;;;4.40;99.90;;;;;;5156270;27;20041;-74
2022/03/24 05:26:07;;;;;;;47.13;28.05;;;4.40;99.90;;;;;;5155902;27;19926;-74
2022/03/24 05:28:33;;;;;;;49.05;28.58;;;4.40;99.90;;;;;;5136882;27;20070;-74
2022/03/24 05:31:00;;;;;;;;;;;4.40;99.90;;;;;;5156185;27;20082;-74
2022/03/24 05:33:26;;;;;;;51.55;27.27;;;4.40;99.90;;;;;;5152747;27;19919;-74
2022/03/24 05:35:52;;;;;;;;;;;4.40;99.90;;;;;;5137752;27;20113;-75
2022/03/24 05:38:17;;;;;;;52.40;28.02;;;4.40;99.90;;;;;;5154959;27;19925;-75
2022/03/24 05:40:43;;;;;;;51.20;28.80;;;4.40;99.90;;;;;;5134638;27;20462;-74
2022/03/24 05:43:09;;;;;;;;;;;4.50;99.90;;;;;;5154922;27;20078;-74
2022/03/24 05:45:34;;;;;;;53.63;30.48;;;4.50;99.90;;;;;;5155476;27;19930;-74
2022/03/24 05:48:00;;;;;;;53.92;31.05;;;4.50;99.90;;;;;;5101314;27;20507;-74
2022/03/24 05:50:26;;;;;;;;;;;4.60;99.90;;;;;;5042423;28;20063;-74
2022/03/24 05:52:51;;;;;;;48.28;27.92;;;4.60;99.90;;;;;;5094405;28;19931;-74
2022/03/24 05:55:17;;;;;;;;;;;4.60;99.90;;;;;;5076200;28;20546;-75
2022/03/24 05:57:44;;;;;;;50.70;28.20;;;4.60;99.90;;;;;;5093394;28;20310;-74
2022/03/24 06:00:10;;;;;;;48.85;29.73;;;4.70;99.90;;;;;;5093688;28;20085;-74
2022/03/24 06:02:36;;;;;;;48.22;27.27;;;4.70;99.90;;;;;;5076233;28;20598;-73
2022/03/24 06:05:04;;;;;;;;;;;4.70;99.90;;;;;;5093935;28;20166;-73
2022/03/24 06:07:29;;;;;;;51.60;29.05;;;4.70;99.90;;;;;;5076075;28;19919;-72
2022/03/24 06:09:56;;;;;;;;;;;4.80;99.90;;;;;;5075749;28;20504;-75
2022/03/24 06:12:24;;;;;;;45.80;26.42;;;4.80;99.90;;;;;;5075319;28;20379;-76
2022/03/24 06:14:51;;;;;;;46.35;26.85;;;4.80;99.90;;;;;;5075787;28;20052;-73
2022/03/24 06:17:18;;;;;;;50.05;27.95;;;4.80;99.90;;;;;;5093250;28;20048;-74
2022/03/24 06:19:45;;;;;;;44.65;25.80;;;4.90;99.90;;;;;;5090480;28;20048;-74
2022/03/24 06:22:12;;;;;;;48.28;27.40;;;4.90;99.90;;;;;;5064154;28;20123;-75
2022/03/24 06:24:38;;;;;;;48.13;27.05;;;4.90;99.90;;;;;;5084263;28;20050;-75
2022/03/24 06:27:03;;;;;;;;;;;5.00;99.90;;;;;;5092263;28;20040;-75
2022/03/24 06:29:29;;;;;;;40.53;24.33;;;5.00;99.90;;;;;;5090231;28;20268;-75
2022/03/24 06:31:55;;;;;;;;;;;5.10;99.90;;;;;;5093468;28;20391;-78
2022/03/24 06:34:21;;;;;;;43.40;25.33;;;5.10;99.90;;;;;;5075464;28;19928;-79
2022/03/24 06:36:46;;;;;;;45.15;26.60;;;5.20;99.90;;;;;;5093675;28;20052;-76
2022/03/24 06:39:12;;;;;;;;;;;5.30;99.90;;;;;;5092782;28;20505;-76
2022/03/24 06:41:37;;;;;;;48.28;27.15;;;5.40;99.90;;;;;;5074610;28;19924;-76
2022/03/24 06:44:06;;;;;;;;;;;5.40;99.90;;;;;;5094067;28;20044;-76
2022/03/24 06:46:33;;;;;;;49.38;28.27;;;5.50;99.90;;;;;;5092272;28;20283;-77
2022/03/24 06:49:00;;;;;;;51.95;29.88;;;5.60;99.90;;;;;;5093333;28;20044;-75
2022/03/24 06:51:25;;;;;;;52.67;29.40;;;5.70;99.90;;;;;;5090566;28;20044;-77
2022/03/24 06:53:51;;;;;;;;;;;5.70;99.90;;;;;;5092958;28;20126;-76
2022/03/24 06:56:17;;;;;;;49.50;27.88;;;5.90;99.90;;;;;;5091654;28;19924;-77
2022/03/24 06:58:43;;;;;;;48.38;27.85;;;5.90;99.90;;;;;;5073132;28;20044;-76
2022/03/24 07:01:10;;;;;;;47.13;27.05;;;6.00;99.90;;;;;;5073431;28;20105;-76
2022/03/24 07:03:36;;;;;;;46.60;25.75;;;6.10;99.90;;;;;;5092932;28;20039;-78
2022/03/24 07:06:02;;;;;;;49.47;27.85;;;6.20;99.90;;;;;;5092498;28;20082;-77
2022/03/24 07:08:31;;;;;;;;;;;6.30;99.90;;;;;;5074795;28;20044;-77
2022/03/24 07:10:56;;;;;;;49.85;30.00;;;6.40;99.90;;;;;;5074284;28;20003;-76
2022/03/24 07:13:23;;;;;;;;;;;6.50;99.90;;;;;;5074108;28;20483;-77
2022/03/24 07:15:49;;;;;;;57.45;30.05;;;6.60;99.90;;;;;;5074924;28;19920;-77
2022/03/24 07:18:15;;;;;;;;;;;6.80;99.90;;;;;;5074708;28;20553;-79
2022/03/24 07:20:42;;;;;;;58.92;31.40;;;6.90;99.90;;;;;;5073035;28;20436;-77
2022/03/24 07:23:09;;;;;;;54.97;32.85;;;7.00;99.90;;;;;;5089640;28;20040;-77
2022/03/24 07:25:39;;;;;;;65.15;35.15;;;7.20;99.90;;;;;;5075150;28;20079;-79
2022/03/24 07:28:06;;;;;;;63.03;34.85;;;7.30;99.90;;;;;;5072942;28;20044;-76
2022/03/24 07:30:31;;;;;;;65.05;35.17;;;7.40;99.90;;;;;;5091780;28;20043;-77
2022/03/24 07:33:00;;;;;;;;;;;7.60;99.90;;;;;;5075039;28;20097;-78
2022/03/24 07:35:29;;;;;;;65.95;35.45;;;7.70;99.90;;;;;;5073981;28;20371;-78
2022/03/24 07:37:55;;;;;;;62.95;34.53;;;7.80;99.90;;;;;;5073814;28;20119;-77
2022/03/24 07:40:22;;;;;;;65.05;36.47;;;8.00;99.90;;;;;;5073232;28;20499;-77
2022/03/24 07:42:52;;;;;;;75.13;39.63;;;8.60;99.90;;;;;;5091600;28;20060;-77
2022/03/24 07:45:19;;;;;;;70.85;40.85;;;9.70;99.90;;;;;;5091645;28;20043;-77
2022/03/24 07:48:08;;;;;;;74.68;43.00;;;11.10;99.90;;;;;;5074590;28;20407;-77
2022/03/24 07:50:35;;;;;;;71.03;43.13;;;12.50;99.90;;;;;;5073267;28;20466;-77
2022/03/24 07:53:13;;;;;;;72.57;43.47;;;13.60;99.90;;;;;;5073534;28;20104;-77
2022/03/24 07:55:41;;;;;;;68.63;41.53;;;14.60;99.90;;;;;;5091412;28;20422;-78
2022/03/24 07:58:08;;;;;;;71.15;43.78;;;15.40;99.90;;;;;;5096202;28;20044;-77
2022/03/24 08:00:35;;;;;;;66.45;42.45;;;16.00;99.90;;;;;;5096362;28;20372;-86
2022/03/24 08:03:01;;;;;;;65.25;41.47;;;16.90;99.90;;;;;;5078329;28;20055;-76
2022/03/24 08:05:27;;;;;;;65.72;41.38;;;17.30;99.90;;;;;;5095098;28;20387;-75
2022/03/24 08:07:56;;;;;;;62.38;41.20;;;17.80;99.90;;;;;;5077573;28;20468;-75
2022/03/24 08:10:23;;;;;;;60.53;41.13;;;18.20;99.90;;;;;;5076107;28;20048;-77
2022/03/24 08:12:48;;;;;;;63.03;41.63;;;18.70;99.90;;;;;;5078156;28;20504;-73
2022/03/24 08:15:14;;;;;;;60.60;40.42;;;19.10;99.90;;;;;;5078001;28;20126;-76
2022/03/24 08:17:40;;;;;;;59.63;40.22;;;19.60;99.90;;;;;;5076824;28;20483;-76
2022/03/24 08:20:06;;;;;;;58.70;40.10;;;20.10;98.90;;;;;;5095437;28;20048;-75
2022/03/24 08:22:32;;;;;;;54.80;38.88;;;20.50;96.70;;;;;;5078540;28;20075;-76
2022/03/24 08:24:57;;;;;;;54.70;38.88;;;20.60;95.70;;;;;;5095432;28;20036;-76
2022/03/24 08:27:24;;;;;;;53.08;38.05;;;21.10;95.30;;;;;;5096175;28;20043;-75
2022/03/24 08:29:49;;;;;;;52.25;36.30;;;21.30;92.90;;;;;;5077555;28;20040;-76
2022/03/24 08:32:15;;;;;;;50.08;37.25;;;21.80;92.70;;;;;;5095429;28;20537;-76
2022/03/24 08:34:43;;;;;;;47.38;34.05;;;22.00;90.80;;;;;;5095762;28;20040;-76
2022/03/24 08:37:09;;;;;;;49.63;36.20;;;22.40;83.00;;;;;;5076848;28;20178;-75
2022/03/24 08:39:35;;;;;;;44.15;34.88;;;22.30;83.70;;;;;;5074085;28;20080;-75
2022/03/24 08:42:01;;;;;;;45.55;34.03;;;22.70;81.80;;;;;;5069115;28;20739;-75
2022/03/24 08:44:26;;;;;;;44.17;33.22;;;23.70;80.20;;;;;;5069428;28;20045;-75
2022/03/24 08:46:52;;;;;;;44.67;34.30;;;23.30;76.40;;;;;;5066639;28;20447;-77
2022/03/24 08:49:18;;;;;;;41.70;31.63;;;23.50;74.60;;;;;;5077187;28;20495;-77
2022/03/24 08:51:45;;;;;;;41.85;32.08;;;23.80;70.40;;;;;;5074312;28;20058;-77
2022/03/24 08:54:11;;;;;;;41.03;32.42;;;24.00;67.20;;;;;;5088273;28;20125;-76
2022/03/24 08:56:36;;;;;;;38.03;30.73;;;24.00;67.10;;;;;;5074762;28;20044;-75
2022/03/24 08:59:04;;;;;;;40.03;31.98;;;23.60;62.60;;;;;;5072675;28;20040;-79
2022/03/24 09:01:30;;;;;;;39.10;31.92;;;24.80;62.60;;;;;;5092012;28;20426;-76
2022/03/24 09:03:55;;;;;;;39.00;31.42;;;24.70;61.20;;;;;;5095448;28;20050;-76
2022/03/24 09:06:22;;;;;;;38.03;30.77;;;25.20;58.50;;;;;;5093795;28;20123;-76
2022/03/24 09:08:48;;;;;;;37.83;30.98;;;25.50;55.10;;;;;;5075835;28;20387;-76
2022/03/24 09:11:14;;;;;;;36.95;30.42;;;26.40;56.70;;;;;;5074499;28;20065;-77
2022/03/24 09:13:39;;;;;;;36.22;30.55;;;25.80;55.30;;;;;;5095037;28;20046;-79
2022/03/24 09:16:06;;;;;;;36.03;30.42;;;26.60;54.30;;;;;;5076441;28;20178;-82
2022/03/24 09:18:35;;;;;;;37.35;31.02;;;26.10;53.80;;;;;;5076847;28;20050;-80
2022/03/24 09:21:01;;;;;;;36.95;31.83;;;25.90;52.70;;;;;;5094629;28;20040;-78
2022/03/24 09:23:28;;;;;;;37.33;30.73;;;26.30;54.40;;;;;;5076588;28;20129;-77
2022/03/24 09:25:56;;;;;;;37.15;32.13;;;26.10;53.00;;;;;;5074404;28;20071;-79
2022/03/24 09:28:24;;;;;;;38.05;31.90;;;25.50;53.70;;;;;;5089187;28;20046;-78
2022/03/24 09:30:51;;;;;;;40.83;32.92;;;25.90;53.00;;;;;;5076448;28;20044;-79
2022/03/24 09:33:18;;;;;;;38.83;32.92;;;25.90;52.90;;;;;;5076904;28;20054;-76
2022/03/24 09:35:43;;;;;;;38.13;30.77;;;26.10;52.70;;;;;;5075398;28;20494;-79
2022/03/24 09:38:09;;;;;;;37.17;31.42;;;25.60;51.50;;;;;;5076093;28;20036;-77
2022/03/24 09:40:35;;;;;;;34.63;29.42;;;26.00;51.40;;;;;;5094205;28;20085;-76
2022/03/24 09:43:02;;;;;;;36.40;30.98;;;26.10;49.40;;;;;;5093153;28;20058;-77
2022/03/24 09:45:28;;;;;;;36.20;32.08;;;26.30;49.20;;;;;;5075274;28;20048;-77
2022/03/24 09:47:54;;;;;;;35.08;30.65;;;26.50;50.50;;;;;;5093337;28;20153;-80
2022/03/24 09:50:22;;;;;;;34.15;30.45;;;26.00;49.40;;;;;;5089885;28;20043;-79
2022/03/24 09:52:48;;;;;;;36.22;31.30;;;26.40;50.70;;;;;;5073717;28;20059;-81
2022/03/24 09:55:14;;;;;;;34.60;30.55;;;27.10;50.60;;;;;;5093479;28;20028;-85
2022/03/24 09:57:42;;;;;;;34.17;29.13;;;26.60;49.10;;;;;;5076546;28;20054;-77
2022/03/24 10:00:09;;;;;;;33.25;29.58;;;26.50;48.00;;;;;;5093810;28;20031;-82
2022/03/24 10:02:34;;;;;;;35.08;29.95;;;26.50;47.50;;;;;;5074928;28;20135;-79
2022/03/24 10:05:01;;;;;;;34.05;29.90;;;26.70;48.70;;;;;;5094383;28;20109;-80
2022/03/24 10:07:31;;;;;;;34.85;31.08;;;27.30;47.60;;;;;;5074126;28;20571;-79
2022/03/24 10:09:58;;;;;;;34.60;30.02;;;27.40;48.00;;;;;;5075129;28;20429;-79
2022/03/24 10:12:28;;;;;;;34.22;30.60;;;27.60;46.60;;;;;;5093854;28;20135;-78
2022/03/24 10:15:16;;;;;;;35.90;31.02;;;27.40;45.80;;;;;;5093530;28;20368;-84
2022/03/24 10:17:53;;;;;;;34.58;29.52;;;27.30;45.70;;;;;;5075362;28;20051;-79
2022/03/24 10:20:19;;;;;;;37.40;31.88;;;27.20;45.20;;;;;;5072590;28;20399;-82
2022/03/24 10:23:05;;;;;;;37.22;32.33;;;27.00;45.50;;;;;;5075619;28;20040;-81
2022/03/24 10:25:32;;;;;;;;;;;27.40;45.60;;;;;;5091952;28;20040;-81
2022/03/24 10:28:14;;;;;;;38.97;32.83;;;26.70;46.00;;;;;;5093377;28;20030;-76
2022/03/24 10:30:49;;;;;;;36.60;32.08;;;27.30;46.50;;;;;;5093058;28;20044;-81
2022/03/24 10:33:34;;;;;;;;;;;27.20;45.80;;;;;;5093829;28;20040;-82
2022/03/24 10:36:10;;;;;;;36.17;31.33;;;26.60;45.10;;;;;;5060536;28;19920;-80
2022/03/24 10:38:42;;;;;;;36.35;32.35;;;26.90;44.80;;;;;;5074257;28;20048;-79
2022/03/24 10:41:38;;;;;;;38.70;32.72;;;26.90;45.40;;;;;;5092035;28;20052;-80
2022/03/24 10:44:08;;;;;;;36.43;32.40;;;27.10;46.50;;;;;;5041222;28;20056;-79
2022/03/24 10:46:37;;;;;;;35.65;31.60;;;27.20;45.30;;;;;;5091567;28;20036;-80
2022/03/24 10:49:17;;;;;;;36.65;32.55;;;27.30;45.30;;;;;;5091594;28;20047;-80
2022/03/24 10:51:44;;;;;;;37.63;33.00;;;28.10;45.60;;;;;;5091505;28;20071;-81
2022/03/24 10:54:49;;;;;;;39.22;33.35;;;27.50;46.60;;;;;;5073736;28;20048;-79
2022/03/24 10:57:20;;;;;;;38.28;33.20;;;27.60;45.00;;;;;;5074919;28;20148;-79
2022/03/24 10:59:48;;;;;;;38.72;33.47;;;27.50;45.70;;;;;;5092466;28;20036;-76
2022/03/24 11:02:15;;;;;;;36.25;32.08;;;27.00;45.30;;;;;;5074729;28;20113;-76
2022/03/24 11:04:43;;;;;;;38.58;31.75;;;27.30;45.20;;;;;;5093423;28;20040;-75
2022/03/24 11:07:09;;;;;;;37.28;31.58;;;26.90;45.50;;;;;;5089787;28;20083;-78
2022/03/24 11:09:35;;;;;;;36.88;31.98;;;27.20;45.40;;;;;;5074490;28;20036;-76
2022/03/24 11:12:27;;;;;;;36.90;31.23;;;27.30;45.70;;;;;;5093122;28;20044;-76
2022/03/24 11:15:04;;;;;;;39.65;32.45;;;27.30;43.90;;;;;;5086141;28;20035;-77
2022/03/24 11:17:32;;;;;;;38.25;32.20;;;27.20;44.80;;;;;;5092403;28;20040;-77
2022/03/24 11:20:00;;;;;;;38.03;32.33;;;27.00;43.70;;;;;;5090564;28;20032;-76
2022/03/24 11:22:52;;;;;;;36.70;30.80;;;26.70;43.90;;;;;;5092429;28;20052;-75
2022/03/24 11:25:20;;;;;;;37.60;31.63;;;26.90;46.00;;;;;;5091788;28;20502;-76
2022/03/24 11:27:47;;;;;;;38.20;32.33;;;27.20;44.30;;;;;;5073998;28;20487;-75
2022/03/24 11:30:15;;;;;;;38.80;31.92;;;27.10;45.10;;;;;;5074013;28;20044;-75
2022/03/24 11:32:43;;;;;;;37.88;31.85;;;27.20;44.30;;;;;;5092337;28;20052;-75
2022/03/24 11:35:09;;;;;;;38.70;31.17;;;27.10;44.20;;;;;;5073165;28;20042;-75
2022/03/24 11:37:36;;;;;;;37.38;30.95;;;27.10;42.70;;;;;;5074016;28;20048;-74
2022/03/24 11:40:10;;;;;;;37.08;30.40;;;27.00;43.40;;;;;;5092283;28;20044;-75
2022/03/24 11:42:47;;;;;;;33.33;29.70;;;27.30;43.80;;;;;;5091646;28;20055;-78
2022/03/24 11:45:29;;;;;;;37.42;30.33;;;27.40;42.80;;;;;;5092044;28;20051;-75
2022/03/24 11:48:11;;;;;;;34.58;30.85;;;27.60;42.00;;;;;;5092149;28;20036;-86
2022/03/24 11:50:49;;;;;;;36.78;31.05;;;27.00;42.40;;;;;;5073500;28;20047;-77
2022/03/24 11:53:37;;;;;;;32.78;28.48;;;27.10;41.80;;;;;;5074070;28;20036;-78
2022/03/24 11:56:06;;;;;;;33.55;28.40;;;27.20;42.00;;;;;;5092119;28;20051;-74
2022/03/24 11:58:41;;;;;;;32.08;27.63;;;27.00;42.70;;;;;;5092019;28;20050;-78
2022/03/24 12:01:22;;;;;;;34.70;28.58;;;27.20;42.20;;;;;;5074101;28;20048;-78
2022/03/24 12:03:49;;;;;;;32.15;28.38;;;27.20;44.20;;;;;;5091433;28;20040;-75
2022/03/24 12:06:17;;;;;;;30.83;25.98;;;27.20;42.30;;;;;;5073268;28;20070;-76
2022/03/24 12:08:51;;;;;;;36.30;27.50;;;27.30;41.90;;;;;;5091890;28;20036;-74
2022/03/24 12:11:32;;;;;;;31.73;25.67;;;27.20;42.70;;;;;;5073899;28;20043;-77
2022/03/24 12:14:04;;;;;;;35.03;27.33;;;27.00;43.00;;;;;;5092424;28;20075;-75
2022/03/24 12:16:38;;;;;;;32.15;24.45;;;26.90;42.30;;;;;;5092114;28;20036;-77
2022/03/24 12:19:04;;;;;;;32.53;25.38;;;27.00;42.30;;;;;;5073894;28;20483;-74
2022/03/24 12:21:31;;;;;;;30.50;24.40;;;27.00;42.80;;;;;;5074436;28;20483;-76
2022/03/24 12:24:02;;;;;;;33.25;24.35;;;27.00;43.20;;;;;;5092002;28;20044;-81
2022/03/24 12:26:29;;;;;;;34.58;27.95;;;27.10;42.80;;;;;;5073798;28;20040;-72
2022/03/24 12:29:25;;;;;;;35.25;26.58;;;27.20;43.60;;;;;;5092100;28;20050;-74
2022/03/24 12:32:02;;;;;;;33.17;25.20;;;27.30;42.90;;;;;;5074674;28;20190;-74
2022/03/24 12:34:45;;;;;;;33.70;26.15;;;27.00;42.80;;;;;;5073736;28;20055;-76
2022/03/24 12:37:43;;;;;;;37.63;28.67;;;26.90;43.20;;;;;;5073092;28;20500;-75
2022/03/24 12:40:12;;;;;;;35.80;26.90;;;26.60;43.80;;;;;;5070760;28;20442;-76
2022/03/24 12:42:52;;;;;;;33.33;25.10;;;26.10;43.60;;;;;;5054066;28;20056;-74
2022/03/24 12:45:25;;;;;;;35.38;26.35;;;25.60;42.70;;;;;;5074912;28;20059;-74
2022/03/24 12:47:51;;;;;;;33.70;26.58;;;25.20;43.70;;;;;;5066608;28;20076;-75
2022/03/24 12:50:17;;;;;;;34.95;27.02;;;25.50;44.80;;;;;;5058638;28;20387;-76
2022/03/24 12:52:54;;;;;;;32.45;24.30;;;25.70;44.30;;;;;;5077265;28;20491;-80
2022/03/24 12:55:22;;;;;;;34.45;25.55;;;25.40;44.60;;;;;;5095685;28;20051;-74
2022/03/24 12:58:11;;;;;;;32.50;25.05;;;25.20;45.00;;;;;;5077669;28;20062;-74